»·PEaware :: CGVZB CYOW-CYHZ

CGVZB :: CYOW-CYHZ

FLIGHT INFORMATION

Flight Status: Arrived
Operator: Unknown
More flights by this operator :: More flights under this callsign
Pilot: Alan S. (10569)
Aircraft: MCDONNELL-DOUGLAS MD-88
(MD88)
More flights by this aircraft type
Origin: CYOW Ottawa/Macdonald-Cartier Intl
Canada
Destination: CYHZ Halifax Intl
Canada
More flights between these airports :: More routes between these airports
Route: DCT AVVON Q943 RABIK Q951 ANTOV DCT EBONY FUNDY2
File this flight plan on PilotEdge
Remarks:
Altitude:
(Current/Filed)
330ft
Speed:
(Current/Filed)
460kts
Departed: 04-Apr-18 06:10 PM
Arrived: 04-Apr-18 07:30 PM
Distance/Time
Traveled:
515nm/1:20
Distance/Time
To Go:
Arrived

Flight Plot

Page will automatically refresh every two minutes.

Flight plan parsing failed; only flown route is shown


Map Options




Map Legend


Flown Route
Filed Route
Departure Airport
Arrival Airport
Navaid (VOR, NDB)
Fix

Horizontal Profiles

Position Reports

Time Latitude Longitude Heading Altitude Ground
Speed
04-Apr-18 17:46 45.322771 -75.670254 35 373ft 0kts
04-Apr-18 17:47 45.322771 -75.670254 35 374ft 0kts
04-Apr-18 17:48 45.322771 -75.670254 35 373ft 0kts
04-Apr-18 17:49 45.322771 -75.670255 35 374ft 0kts
04-Apr-18 17:50 45.322771 -75.670254 35 374ft 0kts
04-Apr-18 17:51 45.322750 -75.670276 35 374ft 2kts
04-Apr-18 17:52 45.322288 -75.670807 64 374ft 2kts
04-Apr-18 17:53 45.322332 -75.671478 126 375ft 1kts
04-Apr-18 17:54 45.322343 -75.671498 125 375ft 0kts
04-Apr-18 17:55 45.322343 -75.671498 125 375ft 0kts
04-Apr-18 17:56 45.322343 -75.671498 125 375ft 0kts
04-Apr-18 17:57 45.322343 -75.671498 125 375ft 0kts
04-Apr-18 17:58 45.322328 -75.671469 125 375ft 1kts
04-Apr-18 17:59 45.320433 -75.667828 132 374ft 19kts
04-Apr-18 18:00 45.316769 -75.661816 126 367ft 22kts
04-Apr-18 18:01 45.312831 -75.654696 162 357ft 15kts
04-Apr-18 18:02 45.312363 -75.654568 172 357ft 0kts
04-Apr-18 18:03 45.312363 -75.654568 172 357ft 0kts
04-Apr-18 18:04 45.312363 -75.654568 172 357ft 0kts
04-Apr-18 18:05 45.312363 -75.654568 172 357ft 0kts
04-Apr-18 18:06 45.312363 -75.654568 172 357ft 0kts
04-Apr-18 18:07 45.312363 -75.654568 172 357ft 0kts
04-Apr-18 18:08 45.311168 -75.655539 303 359ft 10kts
04-Apr-18 18:09 45.327344 -75.684469 312 1098ft 146kts
04-Apr-18 18:10 45.357000 -75.730120 305 3656ft 170kts
04-Apr-18 18:11 45.397267 -75.787521 313 5941ft 230kts
04-Apr-18 18:12 45.460021 -75.808464 21 9264ft 279kts
04-Apr-18 18:13 45.501614 -75.708247 81 12160ft 339kts
04-Apr-18 18:14 45.462496 -75.581032 125 14913ft 375kts
04-Apr-18 18:15 45.397310 -75.457343 129 17225ft 405kts
04-Apr-18 18:16 45.327357 -75.329525 130 19495ft 419kts
04-Apr-18 18:17 45.254947 -75.196492 130 21565ft 431kts
04-Apr-18 18:18 45.182542 -75.058989 118 23398ft 446kts
04-Apr-18 18:19 45.193409 -74.890318 62 24942ft 455kts
04-Apr-18 18:20 45.236450 -74.718475 71 26318ft 468kts
04-Apr-18 18:21 45.274448 -74.540167 72 27488ft 478kts
04-Apr-18 18:22 45.308499 -74.356419 82 28466ft 486kts
04-Apr-18 18:23 45.306963 -74.164529 92 29254ft 490kts
04-Apr-18 18:24 45.304526 -73.969649 92 29899ft 495kts
04-Apr-18 18:25 45.302709 -73.773842 92 30408ft 499kts
04-Apr-18 18:26 45.301229 -73.576670 92 30808ft 502kts
04-Apr-18 18:27 45.300080 -73.377858 91 31121ft 504kts
04-Apr-18 18:28 45.299281 -73.179978 92 31528ft 502kts
04-Apr-18 18:29 45.298824 -72.982437 92 31948ft 499kts
04-Apr-18 18:30 45.298706 -72.786640 92 32340ft 497kts
04-Apr-18 18:31 45.299675 -72.590443 88 32662ft 494kts
04-Apr-18 18:32 45.309254 -72.396152 87 32678ft 496kts
04-Apr-18 18:33 45.317941 -72.201201 88 32669ft 498kts
04-Apr-18 18:34 45.326947 -72.005240 88 32670ft 498kts
04-Apr-18 18:35 45.336277 -71.809467 87 32672ft 498kts
04-Apr-18 18:36 45.343499 -71.662565 87 32673ft 498kts
04-Apr-18 18:37 45.353406 -71.467170 89 32517ft 503kts
04-Apr-18 18:38 45.363721 -71.269986 90 32510ft 502kts
04-Apr-18 18:39 45.374398 -71.072123 90 32513ft 502kts
04-Apr-18 18:40 45.358805 -70.880396 109 32508ft 486kts
04-Apr-18 18:41 45.332643 -70.693335 110 32498ft 480kts
04-Apr-18 18:42 45.307244 -70.507325 109 32496ft 483kts
04-Apr-18 18:43 45.282135 -70.320883 110 32470ft 481kts
04-Apr-18 18:44 45.257424 -70.135129 110 32465ft 480kts
04-Apr-18 18:45 45.232912 -69.948677 109 32463ft 481kts
04-Apr-18 18:46 45.208691 -69.762059 109 32466ft 481kts
04-Apr-18 18:47 45.184828 -69.575850 109 32465ft 482kts
04-Apr-18 18:48 45.161201 -69.389088 108 32468ft 482kts
04-Apr-18 18:49 45.137912 -69.202563 109 32463ft 481kts
04-Apr-18 18:50 45.114966 -69.015726 111 32461ft 483kts
04-Apr-18 18:51 45.092010 -68.827194 113 32459ft 489kts
04-Apr-18 18:52 45.069123 -68.636697 113 32467ft 495kts
04-Apr-18 18:53 45.046304 -68.443728 113 32470ft 499kts
04-Apr-18 18:54 45.024047 -68.252737 113 32466ft 501kts
04-Apr-18 18:55 45.001691 -68.058218 113 32481ft 504kts
04-Apr-18 18:56 44.979431 -67.861487 113 32488ft 509kts
04-Apr-18 18:57 44.957384 -67.663696 113 32485ft 512kts
04-Apr-18 18:58 44.935760 -67.467259 113 32487ft 503kts
04-Apr-18 18:59 44.914817 -67.273466 114 32407ft 497kts
04-Apr-18 19:00 44.901503 -67.077361 101 32353ft 520kts
04-Apr-18 19:01 44.900126 -66.873717 101 32332ft 519kts
04-Apr-18 19:02 44.897702 -66.670129 101 32394ft 519kts
04-Apr-18 19:03 44.895569 -66.466926 100 32391ft 521kts
04-Apr-18 19:04 44.893821 -66.263668 101 32380ft 520kts
04-Apr-18 19:05 44.892425 -66.060309 100 32388ft 519kts
04-Apr-18 19:06 44.891381 -65.856849 100 32391ft 521kts
04-Apr-18 19:07 44.890724 -65.663783 100 31207ft 517kts
04-Apr-18 19:08 44.889815 -65.464128 102 28990ft 502kts
04-Apr-18 19:09 44.884386 -65.268454 101 26380ft 500kts
04-Apr-18 19:10 44.879938 -65.073960 100 23729ft 493kts
04-Apr-18 19:11 44.875934 -64.883149 100 21114ft 484kts
04-Apr-18 19:12 44.872323 -64.696465 100 18546ft 472kts
04-Apr-18 19:13 44.869077 -64.514498 100 16024ft 458kts
04-Apr-18 19:14 44.866196 -64.337680 100 13538ft 444kts
04-Apr-18 19:15 44.868379 -64.167248 87 11303ft 435kts
04-Apr-18 19:16 44.894499 -64.004986 84 9421ft 412kts
04-Apr-18 19:17 44.916201 -63.864142 85 7654ft 325kts
04-Apr-18 19:18 44.933924 -63.747908 84 6357ft 295kts
04-Apr-18 19:19 44.951353 -63.634712 84 5114ft 295kts
04-Apr-18 19:20 44.987577 -63.541754 32 4431ft 264kts
04-Apr-18 19:21 45.048730 -63.487807 32 4459ft 251kts
04-Apr-18 19:22 45.077863 -63.421013 125 4475ft 187kts
04-Apr-18 19:23 45.042664 -63.370149 174 3896ft 168kts
04-Apr-18 19:24 45.003845 -63.385255 215 3166ft 148kts
04-Apr-18 19:25 44.972263 -63.422593 211 2322ft 142kts
04-Apr-18 19:26 44.942547 -63.451257 212 1554ft 121kts
04-Apr-18 19:27 44.915334 -63.477972 215 995ft 117kts
04-Apr-18 19:28 44.888359 -63.505036 212 493ft 118kts
04-Apr-18 19:29 44.870298 -63.522654 214 460ft 28kts

Navigation Log

Ident Type
Flight plan parsing failed, navigation log unavailable